sensor_id;sensor_type;location;lat;lon;timestamp;P1;durP1;ratioP1;P2;durP2;ratioP2
59555;SDS011;45374;52.746;6.304;2023-05-23T00:01:20;24.55;;;14.57;;
59555;SDS011;45374;52.746;6.304;2023-05-23T00:03:46;31.40;;;15.13;;
59555;SDS011;45374;52.746;6.304;2023-05-23T00:06:13;30.95;;;17.30;;
59555;SDS011;45374;52.746;6.304;2023-05-23T00:08:39;26.35;;;14.43;;
59555;SDS011;45374;52.746;6.304;2023-05-23T00:11:04;30.15;;;15.68;;
59555;SDS011;45374;52.746;6.304;2023-05-23T00:13:30;34.28;;;10.80;;
59555;SDS011;45374;52.746;6.304;2023-05-23T00:15:58;31.45;;;12.90;;
59555;SDS011;45374;52.746;6.304;2023-05-23T00:18:24;39.75;;;18.35;;
59555;SDS011;45374;52.746;6.304;2023-05-23T00:20:50;31.65;;;13.88;;
59555;SDS011;45374;52.746;6.304;2023-05-23T00:23:16;47.75;;;18.92;;
59555;SDS011;45374;52.746;6.304;2023-05-23T00:25:45;35.83;;;12.88;;
59555;SDS011;45374;52.746;6.304;2023-05-23T00:28:16;46.70;;;19.67;;
59555;SDS011;45374;52.746;6.304;2023-05-23T00:30:42;29.35;;;14.02;;
59555;SDS011;45374;52.746;6.304;2023-05-23T00:33:08;46.10;;;20.33;;
59555;SDS011;45374;52.746;6.304;2023-05-23T00:35:33;24.00;;;10.95;;
59555;SDS011;45374;52.746;6.304;2023-05-23T00:37:59;41.53;;;19.60;;
59555;SDS011;45374;52.746;6.304;2023-05-23T00:40:26;38.13;;;14.27;;
59555;SDS011;45374;52.746;6.304;2023-05-23T00:42:51;34.83;;;16.60;;
59555;SDS011;45374;52.746;6.304;2023-05-23T00:45:17;35.72;;;14.43;;
59555;SDS011;45374;52.746;6.304;2023-05-23T00:47:43;38.60;;;18.65;;
59555;SDS011;45374;52.746;6.304;2023-05-23T00:50:11;46.03;;;20.15;;
59555;SDS011;45374;52.746;6.304;2023-05-23T00:52:38;34.63;;;13.98;;
59555;SDS011;45374;52.746;6.304;2023-05-23T00:55:05;40.70;;;14.57;;
59555;SDS011;45374;52.746;6.304;2023-05-23T00:57:32;26.08;;;12.55;;
59555;SDS011;45374;52.746;6.304;2023-05-23T00:59:59;26.27;;;13.02;;
59555;SDS011;45374;52.746;6.304;2023-05-23T01:02:25;32.38;;;17.63;;
59555;SDS011;45374;52.746;6.304;2023-05-23T01:04:51;33.05;;;16.40;;
59555;SDS011;45374;52.746;6.304;2023-05-23T01:07:19;36.25;;;16.63;;
59555;SDS011;45374;52.746;6.304;2023-05-23T01:09:45;41.05;;;15.30;;
59555;SDS011;45374;52.746;6.304;2023-05-23T01:12:13;38.10;;;17.83;;
59555;SDS011;45374;52.746;6.304;2023-05-23T01:17:12;36.67;;;17.33;;
59555;SDS011;45374;52.746;6.304;2023-05-23T01:20:01;34.63;;;14.18;;
59555;SDS011;45374;52.746;6.304;2023-05-23T01:22:48;44.42;;;18.65;;
59555;SDS011;45374;52.746;6.304;2023-05-23T01:27:59;40.25;;;18.40;;
59555;SDS011;45374;52.746;6.304;2023-05-23T01:30:28;38.67;;;15.95;;
59555;SDS011;45374;52.746;6.304;2023-05-23T01:32:59;42.22;;;18.00;;
59555;SDS011;45374;52.746;6.304;2023-05-23T01:35:26;44.13;;;18.42;;
59555;SDS011;45374;52.746;6.304;2023-05-23T01:37:55;36.42;;;13.50;;
59555;SDS011;45374;52.746;6.304;2023-05-23T01:40:21;31.83;;;13.65;;
59555;SDS011;45374;52.746;6.304;2023-05-23T01:42:47;34.88;;;14.75;;
59555;SDS011;45374;52.746;6.304;2023-05-23T01:45:13;20.02;;;9.73;;
59555;SDS011;45374;52.746;6.304;2023-05-23T01:47:40;38.53;;;15.77;;
59555;SDS011;45374;52.746;6.304;2023-05-23T01:50:07;22.00;;;11.23;;
59555;SDS011;45374;52.746;6.304;2023-05-23T01:52:34;25.85;;;9.65;;
59555;SDS011;45374;52.746;6.304;2023-05-23T01:55:01;21.10;;;9.85;;
59555;SDS011;45374;52.746;6.304;2023-05-23T01:57:30;18.55;;;9.38;;
59555;SDS011;45374;52.746;6.304;2023-05-23T01:59:57;19.02;;;8.45;;
59555;SDS011;45374;52.746;6.304;2023-05-23T02:02:23;28.63;;;10.20;;
59555;SDS011;45374;52.746;6.304;2023-05-23T02:04:48;25.42;;;10.90;;
59555;SDS011;45374;52.746;6.304;2023-05-23T02:07:14;19.73;;;8.73;;
59555;SDS011;45374;52.746;6.304;2023-05-23T02:09:40;26.08;;;11.52;;
59555;SDS011;45374;52.746;6.304;2023-05-23T02:12:05;23.60;;;9.68;;
59555;SDS011;45374;52.746;6.304;2023-05-23T02:14:31;22.25;;;10.25;;
59555;SDS011;45374;52.746;6.304;2023-05-23T02:16:57;31.88;;;12.98;;
59555;SDS011;45374;52.746;6.304;2023-05-23T02:19:24;18.38;;;8.77;;
59555;SDS011;45374;52.746;6.304;2023-05-23T02:21:50;24.30;;;9.48;;
59555;SDS011;45374;52.746;6.304;2023-05-23T02:24:16;30.98;;;12.57;;
59555;SDS011;45374;52.746;6.304;2023-05-23T02:26:41;29.50;;;13.50;;
59555;SDS011;45374;52.746;6.304;2023-05-23T02:29:07;22.45;;;9.43;;
59555;SDS011;45374;52.746;6.304;2023-05-23T02:31:33;28.98;;;10.88;;
59555;SDS011;45374;52.746;6.304;2023-05-23T02:33:58;25.05;;;11.52;;
59555;SDS011;45374;52.746;6.304;2023-05-23T02:36:24;30.60;;;13.02;;
59555;SDS011;45374;52.746;6.304;2023-05-23T02:38:50;29.50;;;13.63;;
59555;SDS011;45374;52.746;6.304;2023-05-23T02:41:16;19.42;;;8.88;;
59555;SDS011;45374;52.746;6.304;2023-05-23T02:43:43;28.80;;;10.40;;
59555;SDS011;45374;52.746;6.304;2023-05-23T02:46:10;22.23;;;7.20;;
59555;SDS011;45374;52.746;6.304;2023-05-23T02:48:37;18.33;;;6.90;;
59555;SDS011;45374;52.746;6.304;2023-05-23T02:51:03;32.58;;;13.13;;
59555;SDS011;45374;52.746;6.304;2023-05-23T02:53:28;25.13;;;11.70;;
59555;SDS011;45374;52.746;6.304;2023-05-23T02:55:54;24.65;;;8.23;;
59555;SDS011;45374;52.746;6.304;2023-05-23T02:58:20;21.65;;;9.25;;
59555;SDS011;45374;52.746;6.304;2023-05-23T03:00:45;21.63;;;8.55;;
59555;SDS011;45374;52.746;6.304;2023-05-23T03:03:11;22.13;;;7.35;;
59555;SDS011;45374;52.746;6.304;2023-05-23T03:05:36;21.80;;;8.48;;
59555;SDS011;45374;52.746;6.304;2023-05-23T03:08:02;21.08;;;8.85;;
59555;SDS011;45374;52.746;6.304;2023-05-23T03:10:27;20.42;;;9.05;;
59555;SDS011;45374;52.746;6.304;2023-05-23T03:12:53;19.70;;;7.75;;
59555;SDS011;45374;52.746;6.304;2023-05-23T03:15:18;26.63;;;11.05;;
59555;SDS011;45374;52.746;6.304;2023-05-23T03:17:44;20.17;;;7.00;;
59555;SDS011;45374;52.746;6.304;2023-05-23T03:20:10;23.52;;;7.47;;
59555;SDS011;45374;52.746;6.304;2023-05-23T03:22:36;17.73;;;7.00;;
59555;SDS011;45374;52.746;6.304;2023-05-23T03:25:01;23.60;;;8.88;;
59555;SDS011;45374;52.746;6.304;2023-05-23T03:27:28;22.60;;;9.55;;
59555;SDS011;45374;52.746;6.304;2023-05-23T03:29:53;23.67;;;7.82;;
59555;SDS011;45374;52.746;6.304;2023-05-23T03:32:19;26.67;;;9.20;;
59555;SDS011;45374;52.746;6.304;2023-05-23T03:34:45;16.45;;;6.55;;
59555;SDS011;45374;52.746;6.304;2023-05-23T03:37:10;18.92;;;7.57;;
59555;SDS011;45374;52.746;6.304;2023-05-23T03:39:36;16.20;;;7.55;;
59555;SDS011;45374;52.746;6.304;2023-05-23T03:42:01;16.77;;;6.78;;
59555;SDS011;45374;52.746;6.304;2023-05-23T03:44:27;21.10;;;8.25;;
59555;SDS011;45374;52.746;6.304;2023-05-23T03:46:52;18.60;;;6.53;;
59555;SDS011;45374;52.746;6.304;2023-05-23T03:49:18;22.90;;;7.13;;
59555;SDS011;45374;52.746;6.304;2023-05-23T03:51:43;19.42;;;6.97;;
59555;SDS011;45374;52.746;6.304;2023-05-23T03:54:09;22.15;;;8.55;;
59555;SDS011;45374;52.746;6.304;2023-05-23T03:56:34;18.60;;;7.30;;
59555;SDS011;45374;52.746;6.304;2023-05-23T03:59:00;28.00;;;8.85;;
59555;SDS011;45374;52.746;6.304;2023-05-23T04:01:25;19.98;;;5.95;;
59555;SDS011;45374;52.746;6.304;2023-05-23T04:03:51;17.63;;;7.80;;
59555;SDS011;45374;52.746;6.304;2023-05-23T04:06:17;23.88;;;6.80;;
59555;SDS011;45374;52.746;6.304;2023-05-23T04:08:44;22.25;;;7.05;;
59555;SDS011;45374;52.746;6.304;2023-05-23T04:11:09;21.70;;;9.07;;
59555;SDS011;45374;52.746;6.304;2023-05-23T04:13:35;14.35;;;5.90;;
59555;SDS011;45374;52.746;6.304;2023-05-23T04:16:01;16.98;;;7.15;;
59555;SDS011;45374;52.746;6.304;2023-05-23T04:18:29;16.05;;;6.65;;
59555;SDS011;45374;52.746;6.304;2023-05-23T04:20:57;23.20;;;7.18;;
59555;SDS011;45374;52.746;6.304;2023-05-23T04:23:23;17.17;;;6.25;;
59555;SDS011;45374;52.746;6.304;2023-05-23T04:25:48;18.67;;;6.60;;
59555;SDS011;45374;52.746;6.304;2023-05-23T04:28:15;16.42;;;5.65;;
59555;SDS011;45374;52.746;6.304;2023-05-23T04:30:41;19.50;;;5.03;;
59555;SDS011;45374;52.746;6.304;2023-05-23T04:33:07;14.75;;;4.65;;
59555;SDS011;45374;52.746;6.304;2023-05-23T04:35:34;15.30;;;6.05;;
59555;SDS011;45374;52.746;6.304;2023-05-23T04:38:02;9.48;;;4.32;;
59555;SDS011;45374;52.746;6.304;2023-05-23T04:40:28;15.63;;;7.28;;
59555;SDS011;45374;52.746;6.304;2023-05-23T04:42:55;15.68;;;5.43;;
59555;SDS011;45374;52.746;6.304;2023-05-23T04:45:21;14.32;;;5.75;;
59555;SDS011;45374;52.746;6.304;2023-05-23T04:47:47;12.90;;;5.70;;
59555;SDS011;45374;52.746;6.304;2023-05-23T04:50:13;18.10;;;5.35;;
59555;SDS011;45374;52.746;6.304;2023-05-23T04:52:42;18.00;;;7.07;;
59555;SDS011;45374;52.746;6.304;2023-05-23T04:55:08;19.77;;;8.00;;
59555;SDS011;45374;52.746;6.304;2023-05-23T04:57:33;13.55;;;5.65;;
59555;SDS011;45374;52.746;6.304;2023-05-23T04:59:59;13.38;;;5.07;;
59555;SDS011;45374;52.746;6.304;2023-05-23T05:02:25;18.67;;;7.78;;
59555;SDS011;45374;52.746;6.304;2023-05-23T05:04:51;20.23;;;7.65;;
59555;SDS011;45374;52.746;6.304;2023-05-23T05:07:17;14.68;;;6.47;;
59555;SDS011;45374;52.746;6.304;2023-05-23T05:09:43;18.08;;;7.97;;
59555;SDS011;45374;52.746;6.304;2023-05-23T05:12:08;18.75;;;8.25;;
59555;SDS011;45374;52.746;6.304;2023-05-23T05:14:34;15.98;;;7.10;;
59555;SDS011;45374;52.746;6.304;2023-05-23T05:16:59;20.83;;;5.88;;
59555;SDS011;45374;52.746;6.304;2023-05-23T05:19:26;16.02;;;5.20;;
59555;SDS011;45374;52.746;6.304;2023-05-23T05:21:52;19.98;;;6.13;;
59555;SDS011;45374;52.746;6.304;2023-05-23T05:24:17;15.40;;;5.95;;
59555;SDS011;45374;52.746;6.304;2023-05-23T05:26:45;17.27;;;5.10;;
59555;SDS011;45374;52.746;6.304;2023-05-23T05:29:11;11.10;;;4.72;;
59555;SDS011;45374;52.746;6.304;2023-05-23T05:31:37;13.85;;;4.53;;
59555;SDS011;45374;52.746;6.304;2023-05-23T05:34:02;12.50;;;4.57;;
59555;SDS011;45374;52.746;6.304;2023-05-23T05:36:28;10.90;;;4.65;;
59555;SDS011;45374;52.746;6.304;2023-05-23T05:38:53;9.63;;;4.65;;
59555;SDS011;45374;52.746;6.304;2023-05-23T05:41:19;21.23;;;6.13;;
59555;SDS011;45374;52.746;6.304;2023-05-23T05:43:46;13.13;;;5.47;;
59555;SDS011;45374;52.746;6.304;2023-05-23T05:46:11;18.02;;;6.53;;
59555;SDS011;45374;52.746;6.304;2023-05-23T05:48:37;15.88;;;6.47;;
59555;SDS011;45374;52.746;6.304;2023-05-23T05:51:03;9.45;;;3.78;;
59555;SDS011;45374;52.746;6.304;2023-05-23T05:53:28;11.60;;;4.97;;
59555;SDS011;45374;52.746;6.304;2023-05-23T05:55:54;12.45;;;4.63;;
59555;SDS011;45374;52.746;6.304;2023-05-23T05:58:19;13.65;;;5.20;;
59555;SDS011;45374;52.746;6.304;2023-05-23T06:00:46;16.98;;;4.95;;
59555;SDS011;45374;52.746;6.304;2023-05-23T06:03:12;8.80;;;4.72;;
59555;SDS011;45374;52.746;6.304;2023-05-23T06:05:39;13.70;;;4.75;;
59555;SDS011;45374;52.746;6.304;2023-05-23T06:08:05;14.27;;;5.53;;
59555;SDS011;45374;52.746;6.304;2023-05-23T06:10:31;13.80;;;5.10;;
59555;SDS011;45374;52.746;6.304;2023-05-23T06:12:57;15.02;;;5.20;;
59555;SDS011;45374;52.746;6.304;2023-05-23T06:15:23;12.00;;;4.30;;
59555;SDS011;45374;52.746;6.304;2023-05-23T06:17:48;12.65;;;5.03;;
59555;SDS011;45374;52.746;6.304;2023-05-23T06:20:15;11.68;;;4.60;;
59555;SDS011;45374;52.746;6.304;2023-05-23T06:22:40;13.20;;;4.82;;
59555;SDS011;45374;52.746;6.304;2023-05-23T06:25:06;16.33;;;5.95;;
59555;SDS011;45374;52.746;6.304;2023-05-23T06:27:32;15.13;;;4.70;;
59555;SDS011;45374;52.746;6.304;2023-05-23T06:29:57;15.85;;;5.72;;
59555;SDS011;45374;52.746;6.304;2023-05-23T06:32:23;13.93;;;4.85;;
59555;SDS011;45374;52.746;6.304;2023-05-23T06:34:49;9.75;;;4.43;;
59555;SDS011;45374;52.746;6.304;2023-05-23T06:37:14;15.18;;;4.70;;
59555;SDS011;45374;52.746;6.304;2023-05-23T06:39:40;12.80;;;4.20;;
59555;SDS011;45374;52.746;6.304;2023-05-23T06:42:06;15.55;;;4.40;;
59555;SDS011;45374;52.746;6.304;2023-05-23T06:44:31;10.60;;;3.47;;
59555;SDS011;45374;52.746;6.304;2023-05-23T06:46:57;12.32;;;4.25;;
59555;SDS011;45374;52.746;6.304;2023-05-23T06:49:23;12.48;;;3.42;;
59555;SDS011;45374;52.746;6.304;2023-05-23T06:51:49;12.07;;;3.95;;
59555;SDS011;45374;52.746;6.304;2023-05-23T06:54:16;10.90;;;3.53;;
59555;SDS011;45374;52.746;6.304;2023-05-23T06:56:42;10.20;;;3.90;;
59555;SDS011;45374;52.746;6.304;2023-05-23T06:59:07;10.82;;;3.67;;
59555;SDS011;45374;52.746;6.304;2023-05-23T07:01:33;11.10;;;3.60;;
59555;SDS011;45374;52.746;6.304;2023-05-23T07:03:58;13.40;;;3.85;;
59555;SDS011;45374;52.746;6.304;2023-05-23T07:06:24;12.45;;;4.43;;
59555;SDS011;45374;52.746;6.304;2023-05-23T07:08:51;18.92;;;4.35;;
59555;SDS011;45374;52.746;6.304;2023-05-23T07:11:17;12.27;;;4.28;;
59555;SDS011;45374;52.746;6.304;2023-05-23T07:13:43;11.07;;;3.10;;
59555;SDS011;45374;52.746;6.304;2023-05-23T07:16:09;11.80;;;4.38;;
59555;SDS011;45374;52.746;6.304;2023-05-23T07:18:35;14.63;;;3.50;;
59555;SDS011;45374;52.746;6.304;2023-05-23T07:21:00;13.70;;;3.80;;
59555;SDS011;45374;52.746;6.304;2023-05-23T07:23:26;18.23;;;3.72;;
59555;SDS011;45374;52.746;6.304;2023-05-23T07:25:51;14.75;;;3.00;;
59555;SDS011;45374;52.746;6.304;2023-05-23T07:28:18;12.60;;;3.10;;
59555;SDS011;45374;52.746;6.304;2023-05-23T07:30:44;11.05;;;2.80;;
59555;SDS011;45374;52.746;6.304;2023-05-23T07:33:10;16.73;;;3.92;;
59555;SDS011;45374;52.746;6.304;2023-05-23T07:35:35;17.92;;;3.35;;
59555;SDS011;45374;52.746;6.304;2023-05-23T07:38:01;9.27;;;2.50;;
59555;SDS011;45374;52.746;6.304;2023-05-23T07:40:26;16.05;;;3.45;;
59555;SDS011;45374;52.746;6.304;2023-05-23T07:42:52;14.88;;;3.75;;
59555;SDS011;45374;52.746;6.304;2023-05-23T07:45:18;12.15;;;3.15;;
59555;SDS011;45374;52.746;6.304;2023-05-23T07:47:44;8.50;;;2.42;;
59555;SDS011;45374;52.746;6.304;2023-05-23T07:50:09;14.77;;;4.57;;
59555;SDS011;45374;52.746;6.304;2023-05-23T07:52:35;12.10;;;2.88;;
59555;SDS011;45374;52.746;6.304;2023-05-23T07:55:00;16.20;;;3.28;;
59555;SDS011;45374;52.746;6.304;2023-05-23T07:57:26;9.20;;;3.20;;
59555;SDS011;45374;52.746;6.304;2023-05-23T07:59:52;14.82;;;2.60;;
59555;SDS011;45374;52.746;6.304;2023-05-23T08:02:18;11.10;;;2.38;;
59555;SDS011;45374;52.746;6.304;2023-05-23T08:04:44;13.68;;;2.90;;
59555;SDS011;45374;52.746;6.304;2023-05-23T08:07:11;18.38;;;4.13;;
59555;SDS011;45374;52.746;6.304;2023-05-23T08:09:39;18.38;;;3.80;;
59555;SDS011;45374;52.746;6.304;2023-05-23T08:12:06;12.50;;;3.63;;
59555;SDS011;45374;52.746;6.304;2023-05-23T08:14:33;16.92;;;3.42;;
59555;SDS011;45374;52.746;6.304;2023-05-23T08:16:59;6.65;;;2.90;;
59555;SDS011;45374;52.746;6.304;2023-05-23T08:19:25;13.00;;;2.92;;
59555;SDS011;45374;52.746;6.304;2023-05-23T08:21:50;18.38;;;3.70;;
59555;SDS011;45374;52.746;6.304;2023-05-23T08:24:17;13.57;;;2.60;;
59555;SDS011;45374;52.746;6.304;2023-05-23T08:26:44;10.32;;;3.47;;
59555;SDS011;45374;52.746;6.304;2023-05-23T08:29:09;11.60;;;3.05;;
59555;SDS011;45374;52.746;6.304;2023-05-23T08:31:35;13.85;;;3.15;;
59555;SDS011;45374;52.746;6.304;2023-05-23T08:34:00;7.53;;;2.33;;
59555;SDS011;45374;52.746;6.304;2023-05-23T08:36:26;14.25;;;3.58;;
59555;SDS011;45374;52.746;6.304;2023-05-23T08:38:52;9.80;;;2.78;;
59555;SDS011;45374;52.746;6.304;2023-05-23T08:41:21;9.75;;;2.58;;
59555;SDS011;45374;52.746;6.304;2023-05-23T08:43:47;24.05;;;4.32;;
59555;SDS011;45374;52.746;6.304;2023-05-23T08:46:14;19.02;;;3.72;;
59555;SDS011;45374;52.746;6.304;2023-05-23T08:48:41;16.38;;;3.38;;
59555;SDS011;45374;52.746;6.304;2023-05-23T08:51:10;10.82;;;2.65;;
59555;SDS011;45374;52.746;6.304;2023-05-23T08:53:40;8.93;;;2.25;;
59555;SDS011;45374;52.746;6.304;2023-05-23T08:56:08;13.73;;;3.30;;
59555;SDS011;45374;52.746;6.304;2023-05-23T08:58:35;6.57;;;2.65;;
59555;SDS011;45374;52.746;6.304;2023-05-23T09:01:02;14.57;;;3.90;;
59555;SDS011;45374;52.746;6.304;2023-05-23T09:03:28;10.10;;;2.85;;
59555;SDS011;45374;52.746;6.304;2023-05-23T09:05:54;13.45;;;3.35;;
59555;SDS011;45374;52.746;6.304;2023-05-23T09:08:20;13.90;;;3.00;;
59555;SDS011;45374;52.746;6.304;2023-05-23T09:10:49;12.52;;;3.78;;
59555;SDS011;45374;52.746;6.304;2023-05-23T09:13:16;16.65;;;4.40;;
59555;SDS011;45374;52.746;6.304;2023-05-23T09:16:04;13.30;;;3.33;;
59555;SDS011;45374;52.746;6.304;2023-05-23T09:18:35;17.27;;;4.00;;
59555;SDS011;45374;52.746;6.304;2023-05-23T09:21:03;13.73;;;3.28;;
59555;SDS011;45374;52.746;6.304;2023-05-23T09:23:32;13.25;;;2.92;;
59555;SDS011;45374;52.746;6.304;2023-05-23T09:26:06;16.38;;;3.33;;
59555;SDS011;45374;52.746;6.304;2023-05-23T09:28:33;14.63;;;3.97;;
59555;SDS011;45374;52.746;6.304;2023-05-23T09:31:03;13.32;;;3.10;;
59555;SDS011;45374;52.746;6.304;2023-05-23T09:33:46;11.77;;;3.38;;
59555;SDS011;45374;52.746;6.304;2023-05-23T09:36:14;8.73;;;2.33;;
59555;SDS011;45374;52.746;6.304;2023-05-23T09:38:41;15.27;;;2.65;;
59555;SDS011;45374;52.746;6.304;2023-05-23T09:41:08;13.07;;;3.58;;
59555;SDS011;45374;52.746;6.304;2023-05-23T09:43:38;12.23;;;3.88;;
59555;SDS011;45374;52.746;6.304;2023-05-23T09:46:08;16.75;;;3.83;;
59555;SDS011;45374;52.746;6.304;2023-05-23T09:48:35;13.93;;;3.72;;
59555;SDS011;45374;52.746;6.304;2023-05-23T09:51:08;13.25;;;3.47;;
59555;SDS011;45374;52.746;6.304;2023-05-23T09:53:34;13.55;;;3.42;;
59555;SDS011;45374;52.746;6.304;2023-05-23T09:56:03;12.85;;;2.72;;
59555;SDS011;45374;52.746;6.304;2023-05-23T09:58:29;14.60;;;2.78;;
59555;SDS011;45374;52.746;6.304;2023-05-23T10:00:58;11.85;;;3.40;;
59555;SDS011;45374;52.746;6.304;2023-05-23T10:03:32;17.05;;;3.45;;
59555;SDS011;45374;52.746;6.304;2023-05-23T10:06:07;17.42;;;3.10;;
59555;SDS011;45374;52.746;6.304;2023-05-23T10:08:39;11.10;;;3.42;;
59555;SDS011;45374;52.746;6.304;2023-05-23T10:13:44;11.35;;;3.50;;
59555;SDS011;45374;52.746;6.304;2023-05-23T10:16:18;12.68;;;3.50;;
59555;SDS011;45374;52.746;6.304;2023-05-23T10:18:55;12.00;;;3.50;;
59555;SDS011;45374;52.746;6.304;2023-05-23T10:21:32;12.05;;;2.85;;
59555;SDS011;45374;52.746;6.304;2023-05-23T10:24:03;13.00;;;3.00;;
59555;SDS011;45374;52.746;6.304;2023-05-23T10:26:29;8.57;;;2.63;;
59555;SDS011;45374;52.746;6.304;2023-05-23T10:28:56;13.93;;;2.97;;
59555;SDS011;45374;52.746;6.304;2023-05-23T10:31:22;14.10;;;3.55;;
59555;SDS011;45374;52.746;6.304;2023-05-23T10:33:54;11.40;;;2.97;;
59555;SDS011;45374;52.746;6.304;2023-05-23T10:36:26;18.33;;;3.58;;
59555;SDS011;45374;52.746;6.304;2023-05-23T10:39:13;9.50;;;3.42;;
59555;SDS011;45374;52.746;6.304;2023-05-23T10:41:45;14.93;;;3.33;;
59555;SDS011;45374;52.746;6.304;2023-05-23T10:44:17;11.13;;;2.80;;
59555;SDS011;45374;52.746;6.304;2023-05-23T10:49:37;12.35;;;2.95;;
59555;SDS011;45374;52.746;6.304;2023-05-23T10:52:15;14.52;;;3.53;;
59555;SDS011;45374;52.746;6.304;2023-05-23T10:57:08;12.63;;;2.58;;
59555;SDS011;45374;52.746;6.304;2023-05-23T10:59:36;9.00;;;1.92;;
59555;SDS011;45374;52.746;6.304;2023-05-23T11:02:02;9.07;;;2.40;;
59555;SDS011;45374;52.746;6.304;2023-05-23T11:04:36;13.93;;;2.50;;
59555;SDS011;45374;52.746;6.304;2023-05-23T11:07:01;12.45;;;2.55;;
59555;SDS011;45374;52.746;6.304;2023-05-23T11:09:27;13.32;;;3.08;;
59555;SDS011;45374;52.746;6.304;2023-05-23T11:11:53;13.20;;;2.65;;
59555;SDS011;45374;52.746;6.304;2023-05-23T11:14:30;14.55;;;2.65;;
59555;SDS011;45374;52.746;6.304;2023-05-23T11:16:56;9.32;;;3.00;;
59555;SDS011;45374;52.746;6.304;2023-05-23T11:19:23;10.73;;;2.72;;
59555;SDS011;45374;52.746;6.304;2023-05-23T11:21:53;13.88;;;3.88;;
59555;SDS011;45374;52.746;6.304;2023-05-23T11:24:19;14.75;;;3.03;;
59555;SDS011;45374;52.746;6.304;2023-05-23T11:26:52;15.23;;;3.05;;
59555;SDS011;45374;52.746;6.304;2023-05-23T11:29:22;16.08;;;2.88;;
59555;SDS011;45374;52.746;6.304;2023-05-23T11:31:48;9.27;;;2.38;;
59555;SDS011;45374;52.746;6.304;2023-05-23T11:34:13;13.70;;;2.72;;
59555;SDS011;45374;52.746;6.304;2023-05-23T11:36:39;8.77;;;2.50;;
59555;SDS011;45374;52.746;6.304;2023-05-23T11:39:05;12.68;;;2.80;;
59555;SDS011;45374;52.746;6.304;2023-05-23T11:41:31;13.15;;;3.08;;
59555;SDS011;45374;52.746;6.304;2023-05-23T11:43:58;11.10;;;2.65;;
59555;SDS011;45374;52.746;6.304;2023-05-23T11:46:25;4.22;;;2.47;;
59555;SDS011;45374;52.746;6.304;2023-05-23T11:48:51;14.02;;;3.50;;
59555;SDS011;45374;52.746;6.304;2023-05-23T11:51:17;12.52;;;2.92;;
59555;SDS011;45374;52.746;6.304;2023-05-23T11:53:45;11.15;;;2.70;;
59555;SDS011;45374;52.746;6.304;2023-05-23T11:56:11;10.85;;;3.35;;
59555;SDS011;45374;52.746;6.304;2023-05-23T11:58:38;12.82;;;2.75;;
59555;SDS011;45374;52.746;6.304;2023-05-23T12:01:08;18.05;;;2.08;;
59555;SDS011;45374;52.746;6.304;2023-05-23T12:06:14;15.57;;;3.28;;
59555;SDS011;45374;52.746;6.304;2023-05-23T12:08:42;11.02;;;3.00;;
59555;SDS011;45374;52.746;6.304;2023-05-23T12:11:08;14.77;;;3.00;;
59555;SDS011;45374;52.746;6.304;2023-05-23T12:13:33;12.27;;;2.80;;
59555;SDS011;45374;52.746;6.304;2023-05-23T12:15:59;13.20;;;3.88;;
59555;SDS011;45374;52.746;6.304;2023-05-23T12:18:29;16.70;;;3.42;;
59555;SDS011;45374;52.746;6.304;2023-05-23T12:21:02;11.45;;;2.85;;
59555;SDS011;45374;52.746;6.304;2023-05-23T12:23:30;14.95;;;3.58;;
59555;SDS011;45374;52.746;6.304;2023-05-23T12:25:56;9.38;;;2.03;;
59555;SDS011;45374;52.746;6.304;2023-05-23T12:31:08;12.93;;;2.90;;
59555;SDS011;45374;52.746;6.304;2023-05-23T12:33:40;11.77;;;2.67;;
59555;SDS011;45374;52.746;6.304;2023-05-23T12:36:08;8.95;;;2.30;;
59555;SDS011;45374;52.746;6.304;2023-05-23T12:38:35;14.98;;;2.97;;
59555;SDS011;45374;52.746;6.304;2023-05-23T12:41:38;9.00;;;2.50;;
59555;SDS011;45374;52.746;6.304;2023-05-23T12:43:59;11.23;;;2.45;;
59555;SDS011;45374;52.746;6.304;2023-05-23T12:46:26;9.35;;;2.05;;
59555;SDS011;45374;52.746;6.304;2023-05-23T12:48:52;8.85;;;2.40;;
59555;SDS011;45374;52.746;6.304;2023-05-23T12:51:18;14.77;;;2.90;;
59555;SDS011;45374;52.746;6.304;2023-05-23T12:53:44;7.40;;;1.98;;
59555;SDS011;45374;52.746;6.304;2023-05-23T12:56:10;4.93;;;1.83;;
59555;SDS011;45374;52.746;6.304;2023-05-23T12:58:35;9.23;;;2.83;;
59555;SDS011;45374;52.746;6.304;2023-05-23T13:01:01;9.85;;;2.15;;
59555;SDS011;45374;52.746;6.304;2023-05-23T13:03:27;9.60;;;2.45;;
59555;SDS011;45374;52.746;6.304;2023-05-23T13:05:55;10.45;;;2.40;;
59555;SDS011;45374;52.746;6.304;2023-05-23T13:08:21;6.00;;;1.65;;
59555;SDS011;45374;52.746;6.304;2023-05-23T13:10:47;5.35;;;1.73;;
59555;SDS011;45374;52.746;6.304;2023-05-23T13:13:13;10.10;;;2.22;;
59555;SDS011;45374;52.746;6.304;2023-05-23T13:15:39;4.57;;;1.88;;
59555;SDS011;45374;52.746;6.304;2023-05-23T13:18:04;9.93;;;2.50;;
59555;SDS011;45374;52.746;6.304;2023-05-23T13:20:30;6.53;;;2.10;;
59555;SDS011;45374;52.746;6.304;2023-05-23T13:22:56;13.10;;;3.13;;
59555;SDS011;45374;52.746;6.304;2023-05-23T13:25:22;10.50;;;2.53;;
59555;SDS011;45374;52.746;6.304;2023-05-23T13:27:48;9.75;;;2.35;;
59555;SDS011;45374;52.746;6.304;2023-05-23T13:30:14;9.65;;;3.60;;
59555;SDS011;45374;52.746;6.304;2023-05-23T13:32:40;12.15;;;2.85;;
59555;SDS011;45374;52.746;6.304;2023-05-23T13:35:05;14.85;;;3.00;;
59555;SDS011;45374;52.746;6.304;2023-05-23T13:37:31;17.60;;;3.13;;
59555;SDS011;45374;52.746;6.304;2023-05-23T13:39:57;7.95;;;2.20;;
59555;SDS011;45374;52.746;6.304;2023-05-23T13:42:25;5.22;;;2.05;;
59555;SDS011;45374;52.746;6.304;2023-05-23T13:44:51;10.15;;;2.45;;
59555;SDS011;45374;52.746;6.304;2023-05-23T13:47:16;11.57;;;3.08;;
59555;SDS011;45374;52.746;6.304;2023-05-23T13:49:42;11.45;;;2.47;;
59555;SDS011;45374;52.746;6.304;2023-05-23T13:52:08;9.00;;;2.17;;
59555;SDS011;45374;52.746;6.304;2023-05-23T13:54:34;10.20;;;2.25;;
59555;SDS011;45374;52.746;6.304;2023-05-23T13:57:00;9.13;;;2.67;;
59555;SDS011;45374;52.746;6.304;2023-05-23T13:59:25;9.90;;;3.03;;
59555;SDS011;45374;52.746;6.304;2023-05-23T14:01:52;12.15;;;3.28;;
59555;SDS011;45374;52.746;6.304;2023-05-23T14:04:17;15.40;;;2.75;;
59555;SDS011;45374;52.746;6.304;2023-05-23T14:06:43;9.50;;;2.28;;
59555;SDS011;45374;52.746;6.304;2023-05-23T14:09:09;11.73;;;2.53;;
59555;SDS011;45374;52.746;6.304;2023-05-23T14:11:36;10.63;;;2.53;;
59555;SDS011;45374;52.746;6.304;2023-05-23T14:14:02;12.90;;;2.42;;
59555;SDS011;45374;52.746;6.304;2023-05-23T14:16:27;6.15;;;1.85;;
59555;SDS011;45374;52.746;6.304;2023-05-23T14:18:53;12.80;;;2.42;;
59555;SDS011;45374;52.746;6.304;2023-05-23T14:21:19;5.05;;;2.00;;
59555;SDS011;45374;52.746;6.304;2023-05-23T14:23:45;10.52;;;2.40;;
59555;SDS011;45374;52.746;6.304;2023-05-23T14:26:11;7.13;;;1.90;;
59555;SDS011;45374;52.746;6.304;2023-05-23T14:28:36;7.93;;;2.00;;
59555;SDS011;45374;52.746;6.304;2023-05-23T14:31:02;7.90;;;2.85;;
59555;SDS011;45374;52.746;6.304;2023-05-23T14:33:28;7.50;;;2.33;;
59555;SDS011;45374;52.746;6.304;2023-05-23T14:35:53;11.95;;;2.60;;
59555;SDS011;45374;52.746;6.304;2023-05-23T14:38:19;13.85;;;2.60;;
59555;SDS011;45374;52.746;6.304;2023-05-23T14:40:45;9.02;;;2.70;;
59555;SDS011;45374;52.746;6.304;2023-05-23T14:43:12;7.78;;;1.77;;
59555;SDS011;45374;52.746;6.304;2023-05-23T14:45:38;10.55;;;2.40;;
59555;SDS011;45374;52.746;6.304;2023-05-23T14:48:04;8.43;;;2.42;;
59555;SDS011;45374;52.746;6.304;2023-05-23T14:50:30;8.57;;;1.92;;